Погода Кугейскийна неделю

Ростовская область, Россия

19 - 25 мая
  • 19мая
    Сегодня
    +10°
    +20°
    Облачно с прояснениями
    ВремяПогодаТемператураВлажностьДавлениеВетер, м/сВероятность осадков
    00:00Ясно и безоблачно+12°C76 %755 мм2.4 м/с2 %
    03:00Практически безоблачно+10°C81 %754 мм2.3 м/с2 %
    06:00Небольшая облачность+11°C80 %754 мм2.3 м/с4 %
    09:00Облачно с прояснениями+14°C70 %755 мм1.0 м/с11 %
    12:00Облачно с прояснениями+20°C52 %755 мм1.5 м/с24 %
    15:00Облачно с прояснениями+20°C47 %754 мм2.2 м/с18 %
    18:00Пасмурно, сплошная облачность+18°C61 %754 мм2.4 м/с35 %
    21:00Практически безоблачно+13°C91 %755 мм1.1 м/с7 %
  • 20мая
    Понедельник
    +10°
    +22°
    Практически безоблачно
    ВремяПогодаТемператураВлажностьДавлениеВетер, м/сВероятность осадков
    00:00Практически безоблачно+12°C90 %754 мм1.8 м/с1 %
    03:00Ясно и безоблачно+11°C89 %755 мм1.8 м/с2 %
    06:00Ясно и безоблачно+12°C78 %755 мм2.7 м/с2 %
    09:00Ясно и безоблачно+19°C49 %756 мм3.3 м/с2 %
    12:00Ясно и безоблачно+21°C40 %756 мм2.6 м/с8 %
    15:00Практически безоблачно+22°C39 %755 мм1.9 м/с5 %
    18:00Ясно и безоблачно+21°C43 %755 мм1.8 м/с2 %
    21:00Ясно и безоблачно+15°C72 %756 мм2.4 м/с2 %
  • 21мая
    Вторник
    +12°
    +25°
    Небольшая облачность
    ВремяПогодаТемператураВлажностьДавлениеВетер, м/сВероятность осадков
    00:00Ясно и безоблачно+12°C82 %756 мм2.4 м/с2 %
    03:00Ясно и безоблачно+11°C84 %756 мм2.2 м/с2 %
    06:00Ясно и безоблачно+13°C71 %757 мм2.8 м/с2 %
    09:00Ясно и безоблачно+21°C45 %757 мм3.7 м/с2 %
    12:00Небольшая облачность+23°C37 %757 мм4.1 м/с2 %
    15:00Небольшая облачность+25°C33 %757 мм3.5 м/с2 %
    18:00Практически безоблачно+24°C37 %756 мм3.2 м/с2 %
    21:00Ясно и безоблачно+16°C53 %756 мм2.3 м/с2 %
  • 22мая
    Среда
    +12°
    +26°
    Ясно и безоблачно
    ВремяПогодаТемператураВлажностьДавлениеВетер, м/сВероятность осадков
    00:00Ясно и безоблачно+15°C52 %756 мм3.4 м/с2 %
    03:00Ясно и безоблачно+13°C60 %755 мм3.0 м/с2 %
    06:00Ясно и безоблачно+13°C57 %755 мм3.5 м/с2 %
    09:00Практически безоблачно+20°C49 %756 мм3.9 м/с2 %
    12:00Ясно и безоблачно+24°C32 %755 мм5.0 м/с2 %
    15:00Ясно и безоблачно+25°C30 %754 мм5.4 м/с2 %
    18:00Ясно и безоблачно+24°C32 %754 мм4.4 м/с2 %
    21:00Ясно и безоблачно+18°C42 %753 мм3.6 м/с2 %
  • 23мая
    Четверг
    +13°
    +26°
    Ясно и безоблачно
    ВремяПогодаТемператураВлажностьДавлениеВетер, м/сВероятность осадков
    00:00Ясно и безоблачно+16°C49 %753 мм3.6 м/с2 %
    03:00Ясно и безоблачно+14°C58 %753 мм4.0 м/с2 %
    06:00Ясно и безоблачно+13°C67 %753 мм4.3 м/с2 %
    09:00Ясно и безоблачно+20°C52 %754 мм5.1 м/с2 %
    12:00Ясно и безоблачно+24°C34 %754 мм6.6 м/с2 %
    15:00Ясно и безоблачно+25°C26 %753 мм6.4 м/с2 %
    18:00Ясно и безоблачно+24°C29 %753 мм5.0 м/с2 %
    21:00Ясно и безоблачно+19°C38 %753 мм4.0 м/с2 %
Мы используем cookies
Соглашаюсь